createdAt,value
2023-02-06T00:00:30.071Z,12.73
2023-02-06T00:02:51.517Z,13.95
2023-02-06T00:05:16.039Z,14.20
2023-02-06T00:07:34.634Z,14.57
2023-02-06T00:10:09.509Z,14.10
2023-02-06T00:12:23.406Z,14.25
2023-02-06T00:14:36.554Z,15.38
2023-02-06T00:17:00.848Z,13.48
2023-02-06T00:19:21.534Z,16.58
2023-02-06T00:21:42.812Z,13.43
2023-02-06T00:23:58.237Z,15.00
2023-02-06T00:26:02.381Z,14.30
2023-02-06T00:28:04.057Z,13.82
2023-02-06T00:30:08.417Z,14.77
2023-02-06T00:32:28.309Z,15.57
2023-02-06T00:34:32.418Z,17.92
2023-02-06T00:36:33.851Z,17.60
2023-02-06T00:38:53.812Z,15.13
2023-02-06T00:40:58.160Z,16.38
2023-02-06T00:43:02.592Z,16.67
2023-02-06T00:45:04.269Z,16.50
2023-02-06T00:47:08.529Z,19.73
2023-02-06T00:49:13.098Z,17.92
2023-02-06T00:51:14.623Z,15.82
2023-02-06T00:53:16.353Z,17.95
2023-02-06T00:55:20.634Z,16.90
2023-02-06T00:57:24.969Z,17.35
2023-02-06T00:59:26.469Z,16.33
2023-02-06T01:03:34.993Z,18.15
2023-02-06T01:05:39.348Z,19.38
2023-02-06T01:07:40.882Z,17.27
2023-02-06T01:11:49.309Z,19.93
2023-02-06T01:13:50.858Z,18.05
2023-02-06T01:15:52.293Z,16.95
2023-02-06T01:17:53.819Z,16.15
2023-02-06T01:19:58.146Z,19.52
2023-02-06T01:21:59.712Z,19.23
2023-02-06T01:24:04.145Z,17.65
2023-02-06T01:28:12.719Z,17.52
2023-02-06T01:30:17.049Z,16.70
2023-02-06T01:32:18.545Z,16.38
2023-02-06T01:36:27.201Z,16.60
2023-02-06T01:38:31.445Z,17.25
2023-02-06T01:40:32.858Z,18.08
2023-02-06T01:42:37.655Z,18.10
2023-02-06T01:44:41.975Z,17.73
2023-02-06T01:46:49.507Z,19.60
2023-02-06T01:48:54.540Z,17.48
2023-02-06T01:50:59.959Z,17.15
2023-02-06T01:53:03.161Z,19.35
2023-02-06T01:55:05.027Z,17.92
2023-02-06T01:57:08.072Z,16.60
2023-02-06T01:59:09.741Z,18.60
2023-02-06T02:03:18.006Z,16.98
2023-02-06T02:05:19.681Z,15.80
2023-02-06T02:09:28.267Z,17.23
2023-02-06T02:11:34.212Z,15.23
2023-02-06T02:13:38.860Z,15.85
2023-02-06T02:15:52.804Z,19.30
2023-02-06T02:18:07.253Z,21.73
2023-02-06T02:20:30.019Z,17.10
2023-02-06T02:22:50.214Z,19.88
2023-02-06T02:24:54.623Z,20.60
2023-02-06T02:27:16.753Z,18.52
2023-02-06T02:29:38.999Z,18.15
2023-02-06T02:31:58.373Z,20.08
2023-02-06T02:34:15.133Z,19.02
2023-02-06T02:36:24.710Z,18.40
2023-02-06T02:38:37.584Z,19.10
2023-02-06T02:40:39.002Z,19.35
2023-02-06T02:42:48.338Z,18.10
2023-02-06T02:44:52.802Z,16.25
2023-02-06T02:46:55.376Z,16.48
2023-02-06T02:49:00.246Z,16.50
2023-02-06T02:51:05.574Z,16.63
2023-02-06T02:53:13.573Z,15.02
2023-02-06T02:55:18.305Z,16.92
2023-02-06T02:57:34.621Z,18.10
2023-02-06T02:59:52.713Z,15.52
2023-02-06T03:02:37.350Z,15.02
2023-02-06T03:05:03.825Z,14.13
2023-02-06T03:07:32.386Z,17.13
2023-02-06T03:10:03.837Z,14.23
2023-02-06T03:12:26.107Z,17.17
2023-02-06T03:14:46.743Z,17.55
2023-02-06T03:17:02.953Z,17.35
2023-02-06T03:19:17.439Z,15.43
2023-02-06T03:21:28.444Z,16.35
2023-02-06T03:23:45.097Z,16.52
2023-02-06T03:25:59.401Z,15.32
2023-02-06T03:28:15.105Z,14.90
2023-02-06T03:30:23.904Z,16.83
2023-02-06T03:32:31.080Z,16.42
2023-02-06T03:34:35.121Z,15.48
2023-02-06T03:36:36.556Z,15.70
2023-02-06T03:38:40.981Z,16.10
2023-02-06T03:40:44.159Z,16.35
2023-02-06T03:42:48.341Z,17.05
2023-02-06T03:45:15.889Z,16.95
2023-02-06T03:47:21.001Z,14.60
2023-02-06T03:49:25.428Z,18.27
2023-02-06T03:51:53.044Z,16.33
2023-02-06T03:53:55.648Z,16.90
2023-02-06T03:56:00.478Z,17.77
2023-02-06T03:58:13.886Z,17.58
2023-02-06T04:00:15.558Z,14.30
2023-02-06T04:02:36.659Z,16.00
2023-02-06T04:04:39.569Z,14.73
2023-02-06T04:06:44.245Z,16.30
2023-02-06T04:08:45.789Z,15.85
2023-02-06T04:11:06.020Z,16.77
2023-02-06T04:13:10.025Z,16.42
2023-02-06T04:15:30.225Z,15.15
2023-02-06T04:17:43.526Z,18.70
2023-02-06T04:19:58.779Z,14.98
2023-02-06T04:22:00.733Z,18.63
2023-02-06T04:24:02.186Z,17.60
2023-02-06T04:26:03.720Z,16.50
2023-02-06T04:28:05.220Z,18.70
2023-02-06T04:30:07.139Z,18.40
2023-02-06T04:32:08.754Z,19.60
2023-02-06T04:36:14.617Z,17.63
2023-02-06T04:38:18.945Z,20.00
2023-02-06T04:40:23.364Z,17.55
2023-02-06T04:42:27.766Z,17.27
2023-02-06T04:44:33.699Z,15.13
2023-02-06T04:46:35.120Z,14.98
2023-02-06T04:48:39.532Z,14.63
2023-02-06T04:50:41.030Z,13.45
2023-02-06T04:55:05.536Z,15.77
2023-02-06T04:57:09.745Z,14.98
2023-02-06T05:01:18.396Z,14.23
2023-02-06T05:03:38.732Z,15.23
2023-02-06T05:05:40.224Z,13.13
2023-02-06T05:07:41.636Z,14.50
2023-02-06T05:09:43.082Z,12.73
2023-02-06T05:11:47.125Z,11.63
2023-02-06T05:13:51.380Z,11.98
2023-02-06T05:17:59.552Z,12.63
2023-02-06T05:20:04.106Z,11.05
2023-02-06T05:22:08.480Z,11.40
2023-02-06T05:24:12.872Z,13.40
2023-02-06T05:26:17.180Z,12.60
2023-02-06T05:28:21.540Z,12.20
2023-02-06T05:30:26.407Z,12.23
2023-02-06T05:32:30.636Z,11.98
2023-02-06T05:34:32.091Z,10.70
2023-02-06T05:38:37.562Z,11.75
2023-02-06T05:40:38.978Z,11.88
2023-02-06T05:42:40.459Z,13.15
2023-02-06T05:44:44.496Z,12.98
2023-02-06T05:47:04.625Z,14.13
2023-02-06T05:49:08.700Z,10.73
2023-02-06T05:51:12.807Z,10.90
2023-02-06T05:53:17.585Z,9.73
2023-02-06T05:55:21.750Z,13.90
2023-02-06T05:57:29.609Z,11.98
2023-02-06T05:59:34.935Z,12.00
2023-02-06T06:01:43.230Z,12.38
2023-02-06T06:03:45.398Z,9.75
2023-02-06T06:05:47.024Z,12.20
2023-02-06T06:07:48.556Z,10.88
2023-02-06T06:09:50.419Z,12.85
2023-02-06T06:12:10.617Z,11.05
2023-02-06T06:16:18.990Z,11.80
2023-02-06T06:18:23.723Z,11.57
2023-02-06T06:20:25.692Z,10.27
2023-02-06T06:22:29.999Z,12.43
2023-02-06T06:26:39.379Z,10.98
2023-02-06T06:28:40.927Z,10.93
2023-02-06T06:31:05.572Z,10.18
2023-02-06T06:33:07.324Z,10.70
2023-02-06T06:35:27.742Z,10.45
2023-02-06T06:37:29.223Z,10.30
2023-02-06T06:39:49.051Z,10.98
2023-02-06T06:41:53.068Z,10.30
2023-02-06T06:46:00.471Z,10.80
2023-02-06T06:48:02.107Z,11.43
2023-02-06T06:50:07.021Z,10.30
2023-02-06T06:52:24.078Z,14.98
2023-02-06T06:54:28.948Z,11.60
2023-02-06T06:56:49.233Z,9.73
2023-02-06T06:59:09.340Z,13.23
2023-02-06T07:01:10.917Z,11.23
2023-02-06T07:03:15.458Z,10.90
2023-02-06T07:05:17.124Z,12.57
2023-02-06T07:07:18.554Z,11.85
2023-02-06T07:09:22.722Z,13.73
2023-02-06T07:11:27.093Z,11.32
2023-02-06T07:13:31.568Z,11.70
2023-02-06T07:15:36.366Z,9.90
2023-02-06T07:17:38.797Z,10.02
2023-02-06T07:19:40.413Z,10.77
2023-02-06T07:21:41.884Z,13.02
2023-02-06T07:23:43.302Z,11.45
2023-02-06T07:25:47.376Z,10.57
2023-02-06T07:27:48.932Z,10.10
2023-02-06T07:29:50.646Z,9.45
2023-02-06T07:31:52.168Z,10.27
2023-02-06T07:34:12.616Z,9.98
2023-02-06T07:36:18.458Z,10.27
2023-02-06T07:38:23.503Z,10.40
2023-02-06T07:40:33.774Z,12.55
2023-02-06T07:42:47.522Z,10.40
2023-02-06T07:44:49.013Z,9.35
2023-02-06T07:46:53.506Z,9.75
2023-02-06T07:48:54.904Z,10.85
2023-02-06T07:50:56.444Z,9.93
2023-02-06T07:52:58.300Z,11.00
2023-02-06T07:55:18.268Z,10.55
2023-02-06T07:57:20.141Z,9.60
2023-02-06T07:59:21.984Z,10.57
2023-02-06T08:01:23.713Z,10.73
2023-02-06T08:03:25.278Z,9.25
2023-02-06T08:05:29.933Z,8.45
2023-02-06T08:07:31.365Z,11.05
2023-02-06T08:09:33.096Z,8.38
2023-02-06T08:11:35.871Z,8.15
2023-02-06T08:13:37.302Z,8.43
2023-02-06T08:15:38.765Z,9.45
2023-02-06T08:17:42.797Z,8.10
2023-02-06T08:19:47.527Z,7.35
2023-02-06T08:21:49.832Z,7.75
2023-02-06T08:23:57.630Z,8.25
2023-02-06T08:26:06.418Z,8.38
2023-02-06T08:28:08.119Z,7.82
2023-02-06T08:30:10.072Z,7.80
2023-02-06T08:32:11.892Z,7.75
2023-02-06T08:34:16.397Z,7.72
2023-02-06T08:36:18.701Z,7.90
2023-02-06T08:38:20.407Z,9.20
2023-02-06T08:40:24.632Z,7.65
2023-02-06T08:42:26.243Z,7.30
2023-02-06T08:44:27.840Z,8.85
2023-02-06T08:46:30.710Z,6.72
2023-02-06T08:48:32.452Z,6.63
2023-02-06T08:50:37.218Z,6.35
2023-02-06T08:52:41.760Z,5.70
2023-02-06T08:54:43.363Z,5.97
2023-02-06T08:56:45.285Z,7.63
2023-02-06T08:58:46.713Z,7.60
2023-02-06T09:00:52.528Z,7.88
2023-02-06T09:02:57.089Z,7.80
2023-02-06T09:05:06.370Z,9.73
2023-02-06T09:07:33.235Z,6.63
2023-02-06T09:09:44.620Z,8.13
2023-02-06T09:11:59.045Z,9.48
2023-02-06T09:14:14.374Z,7.40
2023-02-06T09:16:42.328Z,7.88
2023-02-06T09:18:59.374Z,7.57
2023-02-06T09:21:12.987Z,8.32
2023-02-06T09:25:23.537Z,8.07
2023-02-06T09:27:35.859Z,7.95
2023-02-06T09:29:44.053Z,8.90
2023-02-06T09:31:56.782Z,11.65
2023-02-06T09:34:08.311Z,9.43
2023-02-06T09:36:16.576Z,9.93
2023-02-06T09:38:28.768Z,10.98
2023-02-06T09:40:36.980Z,9.32
2023-02-06T09:42:39.073Z,8.20
2023-02-06T09:44:42.055Z,8.48
2023-02-06T09:47:05.049Z,8.63
2023-02-06T09:49:15.129Z,8.63
2023-02-06T09:51:23.741Z,7.72
2023-02-06T09:53:30.522Z,7.82
2023-02-06T09:55:45.560Z,7.05
2023-02-06T09:58:24.357Z,6.53
2023-02-06T10:00:38.092Z,9.00
2023-02-06T10:02:58.013Z,8.68
2023-02-06T10:05:04.953Z,8.10
2023-02-06T10:07:31.271Z,8.35
2023-02-06T10:09:35.898Z,8.95
2023-02-06T10:11:37.289Z,8.55
2023-02-06T10:13:44.456Z,7.07
2023-02-06T10:15:50.795Z,7.13
2023-02-06T10:17:59.587Z,7.13
2023-02-06T10:20:06.434Z,7.00
2023-02-06T10:22:30.592Z,7.30
2023-02-06T10:24:56.982Z,8.05
2023-02-06T10:27:17.339Z,8.65
2023-02-06T10:29:25.378Z,6.20
2023-02-06T10:31:47.629Z,7.38
2023-02-06T10:34:07.527Z,7.25
2023-02-06T10:36:27.277Z,7.68
2023-02-06T10:38:50.469Z,7.45
2023-02-06T10:41:00.299Z,8.57
2023-02-06T10:43:32.713Z,8.60
2023-02-06T10:45:42.821Z,8.55
2023-02-06T10:47:44.203Z,8.13
2023-02-06T10:51:53.981Z,9.68
2023-02-06T10:53:59.886Z,8.88
2023-02-06T10:56:30.539Z,8.55
2023-02-06T10:58:56.048Z,9.43
2023-02-06T11:00:58.416Z,8.35
2023-02-06T11:03:07.638Z,8.77
2023-02-06T11:05:15.980Z,8.00
2023-02-06T11:07:26.044Z,8.25
2023-02-06T11:09:46.535Z,8.60
2023-02-06T11:11:48.454Z,7.53
2023-02-06T11:13:55.574Z,8.35
2023-02-06T11:16:16.717Z,7.75
2023-02-06T11:18:22.004Z,8.90
2023-02-06T11:20:25.801Z,8.15
2023-02-06T11:22:29.191Z,9.73
2023-02-06T11:24:30.834Z,7.70
2023-02-06T11:26:32.482Z,7.63
2023-02-06T11:28:39.653Z,6.25
2023-02-06T11:30:41.895Z,5.82
2023-02-06T11:32:52.750Z,6.88
2023-02-06T11:35:35.108Z,7.15
2023-02-06T11:37:40.953Z,6.97
2023-02-06T11:39:44.972Z,6.32
2023-02-06T11:43:56.094Z,7.22
2023-02-06T11:46:16.794Z,6.38
2023-02-06T11:48:35.080Z,5.10
2023-02-06T11:50:55.378Z,7.85
2023-02-06T11:53:07.358Z,4.97
2023-02-06T11:55:27.600Z,4.47
2023-02-06T11:57:34.466Z,4.68
2023-02-06T12:01:57.621Z,5.75
2023-02-06T12:04:02.105Z,5.80
2023-02-06T12:08:17.304Z,5.65
2023-02-06T12:10:24.299Z,5.07
2023-02-06T12:12:57.003Z,5.82
2023-02-06T12:15:23.685Z,4.45
2023-02-06T12:17:28.696Z,6.47
2023-02-06T12:19:35.507Z,4.78
2023-02-06T12:21:49.689Z,5.53
2023-02-06T12:24:01.399Z,5.22
2023-02-06T12:26:08.754Z,5.03
2023-02-06T12:28:13.223Z,3.25
2023-02-06T12:30:23.912Z,4.03
2023-02-06T12:32:30.166Z,4.43
2023-02-06T12:34:56.583Z,3.65
2023-02-06T12:37:10.754Z,4.95
2023-02-06T12:39:19.691Z,3.53
2023-02-06T12:41:30.279Z,3.38
2023-02-06T12:43:36.012Z,3.55
2023-02-06T12:45:46.416Z,4.45
2023-02-06T12:47:54.074Z,2.90
2023-02-06T12:50:15.798Z,4.03
2023-02-06T12:52:26.537Z,3.50
2023-02-06T12:54:33.719Z,4.20
2023-02-06T12:56:38.381Z,3.97
2023-02-06T12:58:39.972Z,3.95
2023-02-06T13:01:14.563Z,4.32
2023-02-06T13:03:26.136Z,3.72
2023-02-06T13:05:38.567Z,3.92
2023-02-06T13:07:49.015Z,3.05
2023-02-06T13:09:59.603Z,3.33
2023-02-06T13:12:21.310Z,3.88
2023-02-06T13:14:27.723Z,4.93
2023-02-06T13:16:53.948Z,5.18
2023-02-06T13:19:01.436Z,5.20
2023-02-06T13:21:14.925Z,3.55
2023-02-06T13:23:22.138Z,4.00
2023-02-06T13:25:29.715Z,3.72
2023-02-06T13:27:49.583Z,2.88
2023-02-06T13:29:56.158Z,4.50
2023-02-06T13:32:12.323Z,3.63
2023-02-06T13:34:16.110Z,2.50
2023-02-06T13:36:49.083Z,3.60
2023-02-06T13:38:54.630Z,3.25
2023-02-06T13:41:17.023Z,4.03
2023-02-06T13:43:19.901Z,3.38
2023-02-06T13:45:23.891Z,2.80
2023-02-06T13:47:36.411Z,4.20
2023-02-06T13:49:56.214Z,3.10
2023-02-06T13:52:06.733Z,2.70
2023-02-06T13:54:23.730Z,3.65
2023-02-06T13:56:37.367Z,3.33
2023-02-06T13:58:41.385Z,4.30
2023-02-06T14:00:46.209Z,2.75
2023-02-06T14:03:10.921Z,3.03
2023-02-06T14:05:19.901Z,3.20
2023-02-06T14:07:25.030Z,4.10
2023-02-06T14:10:04.511Z,3.75
2023-02-06T14:12:38.897Z,3.90
2023-02-06T14:15:01.519Z,3.63
2023-02-06T14:17:11.293Z,4.30
2023-02-06T14:19:56.103Z,4.47
2023-02-06T14:22:19.053Z,4.05
2023-02-06T14:24:27.931Z,3.22
2023-02-06T14:26:32.500Z,3.35
2023-02-06T14:28:44.611Z,2.97
2023-02-06T14:30:50.867Z,3.22
2023-02-06T14:33:07.184Z,3.40
2023-02-06T14:35:08.611Z,3.30
2023-02-06T14:37:26.551Z,2.10
2023-02-06T14:39:45.976Z,4.43
2023-02-06T14:41:50.048Z,1.63
2023-02-06T14:43:51.789Z,1.83
2023-02-06T14:46:06.291Z,2.53
2023-02-06T14:48:24.492Z,2.30
2023-02-06T14:50:33.129Z,3.10
2023-02-06T14:52:37.288Z,3.35
2023-02-06T14:54:38.727Z,3.25
2023-02-06T14:56:43.145Z,4.20
2023-02-06T14:58:46.433Z,2.92
2023-02-06T15:00:47.991Z,2.20
2023-02-06T15:03:01.956Z,2.10
2023-02-06T15:05:06.445Z,1.65
2023-02-06T15:07:20.221Z,2.67
2023-02-06T15:09:32.417Z,3.30
2023-02-06T15:11:34.616Z,2.60
2023-02-06T15:13:37.834Z,2.80
2023-02-06T15:15:51.849Z,2.60
2023-02-06T15:17:57.904Z,3.10
2023-02-06T15:20:21.727Z,3.13
2023-02-06T15:22:28.871Z,4.32
2023-02-06T15:27:09.059Z,3.88
2023-02-06T15:29:27.001Z,3.28
2023-02-06T15:31:32.774Z,2.70
2023-02-06T15:33:36.068Z,2.93
2023-02-06T15:35:41.775Z,3.47
2023-02-06T15:37:44.856Z,3.55
2023-02-06T15:39:50.480Z,2.97
2023-02-06T15:41:53.647Z,2.80
2023-02-06T15:44:01.412Z,3.20
2023-02-06T15:46:07.582Z,3.65
2023-02-06T15:48:19.540Z,4.18
2023-02-06T15:50:28.676Z,4.95
2023-02-06T15:52:33.605Z,3.83
2023-02-06T15:54:57.801Z,3.17
2023-02-06T15:57:15.136Z,4.45
2023-02-06T15:59:21.892Z,3.47
2023-02-06T16:03:43.537Z,4.93
2023-02-06T16:05:47.856Z,3.10
2023-02-06T16:07:52.166Z,3.05
2023-02-06T16:11:57.958Z,3.13
2023-02-06T16:14:02.117Z,3.47
2023-02-06T16:16:18.092Z,3.60
2023-02-06T16:18:26.499Z,4.32
2023-02-06T16:20:33.963Z,3.95
2023-02-06T16:22:39.918Z,3.25
2023-02-06T16:24:44.742Z,3.00
2023-02-06T16:27:31.345Z,2.47
2023-02-06T16:29:35.861Z,3.25
2023-02-06T16:31:42.416Z,3.38
2023-02-06T16:33:45.222Z,3.38
2023-02-06T16:35:49.577Z,2.88
2023-02-06T16:37:52.576Z,3.50
2023-02-06T16:39:54.444Z,2.22
2023-02-06T16:41:58.835Z,2.00
2023-02-06T16:44:03.826Z,3.10
2023-02-06T16:46:08.166Z,2.20
2023-02-06T16:48:13.037Z,2.55
2023-02-06T16:50:18.006Z,3.28
2023-02-06T16:52:40.009Z,3.83
2023-02-06T16:54:41.575Z,2.55
2023-02-06T16:56:43.129Z,3.97
2023-02-06T16:58:44.798Z,3.47
2023-02-06T17:00:46.702Z,2.28
2023-02-06T17:02:54.231Z,2.92
2023-02-06T17:04:58.348Z,2.17
2023-02-06T17:07:02.540Z,3.55
2023-02-06T17:09:09.130Z,3.63
2023-02-06T17:11:11.224Z,2.95
2023-02-06T17:13:16.786Z,2.60
2023-02-06T17:15:18.784Z,3.83
2023-02-06T17:17:21.384Z,3.30
2023-02-06T17:19:25.665Z,2.95
2023-02-06T17:21:29.713Z,3.15
2023-02-06T17:23:31.240Z,3.42
2023-02-06T17:25:32.845Z,3.45
2023-02-06T17:27:34.635Z,3.53
2023-02-06T17:29:54.589Z,3.25
2023-02-06T17:31:59.501Z,2.92
2023-02-06T17:34:00.937Z,5.07
2023-02-06T17:36:07.826Z,3.67
2023-02-06T17:38:12.379Z,3.08
2023-02-06T17:40:18.525Z,3.80
2023-02-06T17:42:21.934Z,3.67
2023-02-06T17:44:26.445Z,5.57
2023-02-06T17:46:30.631Z,4.40
2023-02-06T17:48:36.332Z,3.42
2023-02-06T17:50:40.634Z,3.40
2023-02-06T17:52:45.050Z,5.03
2023-02-06T17:54:49.246Z,4.70
2023-02-06T17:56:53.580Z,4.15
2023-02-06T17:58:58.027Z,4.30
2023-02-06T18:00:59.489Z,4.40
2023-02-06T18:03:01.252Z,4.38
2023-02-06T18:05:06.077Z,4.57
2023-02-06T18:07:10.361Z,3.63
2023-02-06T18:09:12.658Z,4.15
2023-02-06T18:11:18.173Z,4.47
2023-02-06T18:13:21.175Z,5.38
2023-02-06T18:15:25.677Z,7.13
2023-02-06T18:17:29.235Z,6.28
2023-02-06T18:19:48.517Z,5.63
2023-02-06T18:22:05.300Z,4.82
2023-02-06T18:24:29.235Z,5.10
2023-02-06T18:26:45.302Z,6.05
2023-02-06T18:28:51.989Z,5.50
2023-02-06T18:31:03.668Z,7.28
2023-02-06T18:33:16.553Z,7.05
2023-02-06T18:35:25.802Z,6.45
2023-02-06T18:37:32.281Z,5.97
2023-02-06T18:39:40.889Z,7.70
2023-02-06T18:42:23.504Z,6.53
2023-02-06T18:44:29.608Z,7.38
2023-02-06T18:46:41.904Z,5.93
2023-02-06T18:48:56.176Z,7.30
2023-02-06T18:51:02.378Z,7.20
2023-02-06T18:53:07.533Z,6.45
2023-02-06T18:55:18.838Z,10.95
2023-02-06T18:57:24.706Z,8.35
2023-02-06T18:59:26.964Z,8.50
2023-02-06T19:01:47.484Z,9.40
2023-02-06T19:03:52.452Z,8.30
2023-02-06T19:05:54.095Z,7.57
2023-02-06T19:07:55.548Z,7.50
2023-02-06T19:09:57.945Z,7.60
2023-02-06T19:11:59.451Z,7.07
2023-02-06T19:14:01.066Z,9.77
2023-02-06T19:16:13.525Z,8.45
2023-02-06T19:18:14.989Z,10.13
2023-02-06T19:20:22.059Z,11.48
2023-02-06T19:22:23.947Z,9.90
2023-02-06T19:24:30.725Z,8.45
2023-02-06T19:26:32.326Z,10.07
2023-02-06T19:28:38.281Z,12.35
2023-02-06T19:30:42.324Z,12.88
2023-02-06T19:32:48.622Z,12.48
2023-02-06T19:35:09.133Z,12.27
2023-02-06T19:37:11.227Z,11.15
2023-02-06T19:39:15.406Z,10.85
2023-02-06T19:43:24.982Z,12.70
2023-02-06T19:45:29.445Z,11.25
2023-02-06T19:47:34.070Z,13.38
2023-02-06T19:49:38.464Z,14.18
2023-02-06T19:51:40.776Z,11.50
2023-02-06T19:53:45.682Z,11.25
2023-02-06T19:55:49.765Z,10.40
2023-02-06T19:58:09.848Z,11.02
2023-02-06T20:00:29.863Z,9.68
2023-02-06T20:02:31.291Z,9.23
2023-02-06T20:04:36.182Z,8.45
2023-02-06T20:06:43.734Z,12.60
2023-02-06T20:08:45.759Z,19.55
2023-02-06T20:10:47.232Z,8.88
2023-02-06T20:12:48.720Z,7.30
2023-02-06T20:14:52.819Z,8.32
2023-02-06T20:16:56.855Z,8.73
2023-02-06T20:18:58.469Z,8.23
2023-02-06T20:21:03.291Z,8.10
2023-02-06T20:23:05.233Z,9.43
2023-02-06T20:25:25.759Z,7.53
2023-02-06T20:27:45.945Z,8.90
2023-02-06T20:29:50.535Z,8.38
2023-02-06T20:31:52.698Z,8.15
2023-02-06T20:33:59.997Z,7.95
2023-02-06T20:36:05.600Z,9.35
2023-02-06T20:38:07.441Z,9.48
2023-02-06T20:40:09.257Z,8.05
2023-02-06T20:42:16.873Z,8.48
2023-02-06T20:44:19.352Z,9.13
2023-02-06T20:46:24.622Z,10.40
2023-02-06T20:48:29.364Z,8.40
2023-02-06T20:50:34.325Z,6.95
2023-02-06T20:52:36.085Z,6.88
2023-02-06T20:54:43.666Z,7.78
2023-02-06T20:56:45.255Z,6.68
2023-02-06T20:58:47.160Z,6.78
2023-02-06T21:01:22.295Z,8.23
2023-02-06T21:03:26.905Z,6.32
2023-02-06T21:05:28.427Z,7.13
2023-02-06T21:07:33.465Z,8.27
2023-02-06T21:09:37.951Z,8.25
2023-02-06T21:11:58.306Z,8.07
2023-02-06T21:16:22.326Z,8.10
2023-02-06T21:18:24.820Z,9.15
2023-02-06T21:20:26.344Z,10.45
2023-02-06T21:22:27.760Z,12.05
2023-02-06T21:24:31.869Z,10.63
2023-02-06T21:26:52.468Z,12.88
2023-02-06T21:28:56.614Z,9.85
2023-02-06T21:31:11.067Z,10.18
2023-02-06T21:33:18.832Z,11.02
2023-02-06T21:37:33.360Z,13.13
2023-02-06T21:39:38.087Z,11.77
2023-02-06T21:41:50.935Z,10.90
2023-02-06T21:43:56.832Z,11.02
2023-02-06T21:46:06.712Z,11.55
2023-02-06T21:48:13.219Z,15.65
2023-02-06T21:50:35.227Z,12.80
2023-02-06T21:52:41.101Z,11.80
2023-02-06T21:54:47.161Z,11.02
2023-02-06T21:56:53.290Z,11.20
2023-02-06T21:58:57.043Z,10.23
2023-02-06T22:01:19.127Z,9.23
2023-02-06T22:03:23.259Z,8.63
2023-02-06T22:05:30.865Z,8.18
2023-02-06T22:07:34.149Z,8.10
2023-02-06T22:09:41.790Z,6.93
2023-02-06T22:11:49.093Z,8.32
2023-02-06T22:13:50.956Z,7.13
2023-02-06T22:15:55.269Z,11.18
2023-02-06T22:17:59.393Z,9.07
2023-02-06T22:20:03.982Z,8.15
2023-02-06T22:22:05.524Z,11.18
2023-02-06T22:24:11.150Z,10.65
2023-02-06T22:26:13.999Z,9.88
2023-02-06T22:28:18.490Z,9.52
2023-02-06T22:30:20.141Z,10.40
2023-02-06T22:34:25.559Z,10.27
2023-02-06T22:36:30.980Z,10.70
2023-02-06T22:38:35.444Z,10.15
2023-02-06T22:40:39.789Z,10.20
2023-02-06T22:42:41.340Z,11.23
2023-02-06T22:44:42.948Z,10.63
2023-02-06T22:47:03.406Z,11.65
2023-02-06T22:49:24.681Z,10.90
2023-02-06T22:51:29.151Z,10.88
2023-02-06T22:53:30.733Z,11.23
2023-02-06T22:55:52.237Z,12.80
2023-02-06T22:57:56.341Z,10.15
2023-02-06T23:00:00.814Z,11.43
2023-02-06T23:02:05.274Z,11.80
2023-02-06T23:06:14.393Z,12.02
2023-02-06T23:08:19.261Z,13.15
2023-02-06T23:10:20.714Z,10.18
2023-02-06T23:14:26.980Z,10.40
2023-02-06T23:16:29.567Z,10.85
2023-02-06T23:18:50.034Z,13.77
2023-02-06T23:20:58.262Z,12.40
2023-02-06T23:23:02.656Z,12.68
2023-02-06T23:25:04.127Z,11.13
2023-02-06T23:27:11.403Z,11.80
2023-02-06T23:29:17.952Z,11.77
2023-02-06T23:31:19.511Z,11.70
2023-02-06T23:33:21.188Z,12.00
2023-02-06T23:35:25.245Z,11.60
2023-02-06T23:37:29.313Z,12.13
2023-02-06T23:39:33.658Z,11.80
2023-02-06T23:43:42.207Z,12.60
2023-02-06T23:45:46.492Z,11.35
2023-02-06T23:47:47.958Z,11.68
2023-02-06T23:49:49.750Z,13.10
2023-02-06T23:51:51.311Z,13.73
2023-02-06T23:53:55.722Z,11.75
2023-02-06T23:56:00.201Z,11.48
